sensor_id;sensor_type;location;lat;lon;timestamp;P1;durP1;ratioP1;P2;durP2;ratioP2
54372;SDS011;40271;48.798;10.178;2022-07-23T00:02:07;4.70;;;4.18;;
54372;SDS011;40271;48.798;10.178;2022-07-23T00:04:33;6.65;;;4.70;;
54372;SDS011;40271;48.798;10.178;2022-07-23T00:06:59;5.60;;;4.60;;
54372;SDS011;40271;48.798;10.178;2022-07-23T00:09:25;6.47;;;5.03;;
54372;SDS011;40271;48.798;10.178;2022-07-23T00:11:53;5.45;;;4.93;;
54372;SDS011;40271;48.798;10.178;2022-07-23T00:14:19;5.55;;;4.80;;
54372;SDS011;40271;48.798;10.178;2022-07-23T00:16:45;5.38;;;4.28;;
54372;SDS011;40271;48.798;10.178;2022-07-23T00:19:11;7.32;;;4.55;;
54372;SDS011;40271;48.798;10.178;2022-07-23T00:21:37;5.57;;;4.35;;
54372;SDS011;40271;48.798;10.178;2022-07-23T00:24:03;5.25;;;4.03;;
54372;SDS011;40271;48.798;10.178;2022-07-23T00:26:29;5.45;;;4.00;;
54372;SDS011;40271;48.798;10.178;2022-07-23T00:28:55;5.65;;;4.45;;
54372;SDS011;40271;48.798;10.178;2022-07-23T00:31:21;5.03;;;3.80;;
54372;SDS011;40271;48.798;10.178;2022-07-23T00:33:47;4.47;;;3.65;;
54372;SDS011;40271;48.798;10.178;2022-07-23T00:36:13;5.60;;;4.13;;
54372;SDS011;40271;48.798;10.178;2022-07-23T00:38:39;4.75;;;3.80;;
54372;SDS011;40271;48.798;10.178;2022-07-23T00:41:05;5.30;;;4.05;;
54372;SDS011;40271;48.798;10.178;2022-07-23T00:43:31;4.38;;;3.90;;
54372;SDS011;40271;48.798;10.178;2022-07-23T00:45:57;5.05;;;3.83;;
54372;SDS011;40271;48.798;10.178;2022-07-23T00:48:24;5.22;;;4.10;;
54372;SDS011;40271;48.798;10.178;2022-07-23T00:50:50;4.97;;;4.13;;
54372;SDS011;40271;48.798;10.178;2022-07-23T00:53:16;4.97;;;4.00;;
54372;SDS011;40271;48.798;10.178;2022-07-23T00:55:42;5.20;;;4.38;;
54372;SDS011;40271;48.798;10.178;2022-07-23T00:58:08;6.57;;;4.32;;
54372;SDS011;40271;48.798;10.178;2022-07-23T01:00:35;4.30;;;3.90;;
54372;SDS011;40271;48.798;10.178;2022-07-23T01:03:01;4.47;;;4.00;;
54372;SDS011;40271;48.798;10.178;2022-07-23T01:05:27;4.85;;;4.32;;
54372;SDS011;40271;48.798;10.178;2022-07-23T01:07:53;4.85;;;3.83;;
54372;SDS011;40271;48.798;10.178;2022-07-23T01:10:19;4.75;;;3.95;;
54372;SDS011;40271;48.798;10.178;2022-07-23T01:12:58;5.15;;;4.18;;
54372;SDS011;40271;48.798;10.178;2022-07-23T01:15:24;4.55;;;3.80;;
54372;SDS011;40271;48.798;10.178;2022-07-23T01:17:50;5.85;;;4.25;;
54372;SDS011;40271;48.798;10.178;2022-07-23T01:20:16;5.43;;;3.97;;
54372;SDS011;40271;48.798;10.178;2022-07-23T01:22:42;6.25;;;3.90;;
54372;SDS011;40271;48.798;10.178;2022-07-23T01:25:09;4.32;;;3.80;;
54372;SDS011;40271;48.798;10.178;2022-07-23T01:27:35;6.10;;;4.00;;
54372;SDS011;40271;48.798;10.178;2022-07-23T01:30:02;5.65;;;3.65;;
54372;SDS011;40271;48.798;10.178;2022-07-23T01:32:28;5.22;;;4.00;;
54372;SDS011;40271;48.798;10.178;2022-07-23T01:34:55;4.38;;;3.63;;
54372;SDS011;40271;48.798;10.178;2022-07-23T01:37:21;5.40;;;3.78;;
54372;SDS011;40271;48.798;10.178;2022-07-23T01:39:47;4.60;;;4.07;;
54372;SDS011;40271;48.798;10.178;2022-07-23T01:42:13;5.18;;;3.75;;
54372;SDS011;40271;48.798;10.178;2022-07-23T01:44:39;6.28;;;4.22;;
54372;SDS011;40271;48.798;10.178;2022-07-23T01:47:05;5.55;;;3.95;;
54372;SDS011;40271;48.798;10.178;2022-07-23T01:49:31;5.05;;;3.88;;
54372;SDS011;40271;48.798;10.178;2022-07-23T01:51:57;4.60;;;3.72;;
54372;SDS011;40271;48.798;10.178;2022-07-23T01:54:27;4.55;;;3.75;;
54372;SDS011;40271;48.798;10.178;2022-07-23T01:56:53;4.78;;;3.90;;
54372;SDS011;40271;48.798;10.178;2022-07-23T01:59:19;4.60;;;4.00;;
54372;SDS011;40271;48.798;10.178;2022-07-23T02:01:45;4.38;;;3.67;;
54372;SDS011;40271;48.798;10.178;2022-07-23T02:04:11;5.00;;;3.80;;
54372;SDS011;40271;48.798;10.178;2022-07-23T02:06:37;5.97;;;3.78;;
54372;SDS011;40271;48.798;10.178;2022-07-23T02:09:03;6.88;;;3.20;;
54372;SDS011;40271;48.798;10.178;2022-07-23T02:11:29;4.80;;;3.67;;
54372;SDS011;40271;48.798;10.178;2022-07-23T02:13:55;6.57;;;3.58;;
54372;SDS011;40271;48.798;10.178;2022-07-23T02:16:21;6.10;;;4.45;;
54372;SDS011;40271;48.798;10.178;2022-07-23T02:18:47;6.47;;;3.97;;
54372;SDS011;40271;48.798;10.178;2022-07-23T02:21:14;6.00;;;3.80;;
54372;SDS011;40271;48.798;10.178;2022-07-23T02:23:40;5.43;;;3.95;;
54372;SDS011;40271;48.798;10.178;2022-07-23T02:26:06;5.05;;;3.70;;
54372;SDS011;40271;48.798;10.178;2022-07-23T02:28:32;5.68;;;3.80;;
54372;SDS011;40271;48.798;10.178;2022-07-23T02:30:58;5.20;;;3.80;;
54372;SDS011;40271;48.798;10.178;2022-07-23T02:33:24;7.00;;;4.00;;
54372;SDS011;40271;48.798;10.178;2022-07-23T02:35:50;4.53;;;3.97;;
54372;SDS011;40271;48.798;10.178;2022-07-23T02:38:16;6.13;;;3.90;;
54372;SDS011;40271;48.798;10.178;2022-07-23T02:40:42;5.50;;;3.85;;
54372;SDS011;40271;48.798;10.178;2022-07-23T02:43:08;5.20;;;3.90;;
54372;SDS011;40271;48.798;10.178;2022-07-23T02:45:34;6.95;;;3.88;;
54372;SDS011;40271;48.798;10.178;2022-07-23T02:48:00;4.47;;;3.58;;
54372;SDS011;40271;48.798;10.178;2022-07-23T02:50:26;6.15;;;3.70;;
54372;SDS011;40271;48.798;10.178;2022-07-23T02:52:52;7.22;;;4.10;;
54372;SDS011;40271;48.798;10.178;2022-07-23T02:55:18;5.38;;;3.60;;
54372;SDS011;40271;48.798;10.178;2022-07-23T02:57:44;4.85;;;3.97;;
54372;SDS011;40271;48.798;10.178;2022-07-23T03:00:11;4.90;;;3.90;;
54372;SDS011;40271;48.798;10.178;2022-07-23T03:02:37;6.07;;;3.67;;
54372;SDS011;40271;48.798;10.178;2022-07-23T03:05:03;5.75;;;3.90;;
54372;SDS011;40271;48.798;10.178;2022-07-23T03:07:29;6.00;;;4.00;;
54372;SDS011;40271;48.798;10.178;2022-07-23T03:09:55;5.28;;;3.60;;
54372;SDS011;40271;48.798;10.178;2022-07-23T03:12:21;5.38;;;3.70;;
54372;SDS011;40271;48.798;10.178;2022-07-23T03:14:47;4.35;;;3.67;;
54372;SDS011;40271;48.798;10.178;2022-07-23T03:17:13;4.85;;;3.58;;
54372;SDS011;40271;48.798;10.178;2022-07-23T03:19:39;6.47;;;3.90;;
54372;SDS011;40271;48.798;10.178;2022-07-23T03:22:05;4.32;;;3.83;;
54372;SDS011;40271;48.798;10.178;2022-07-23T03:24:31;5.20;;;3.90;;
54372;SDS011;40271;48.798;10.178;2022-07-23T03:27:16;4.00;;;3.60;;
54372;SDS011;40271;48.798;10.178;2022-07-23T03:29:42;5.55;;;4.13;;
54372;SDS011;40271;48.798;10.178;2022-07-23T03:32:08;6.32;;;4.00;;
54372;SDS011;40271;48.798;10.178;2022-07-23T03:34:34;5.30;;;3.97;;
54372;SDS011;40271;48.798;10.178;2022-07-23T03:37:01;6.38;;;4.13;;
54372;SDS011;40271;48.798;10.178;2022-07-23T03:39:27;5.45;;;4.38;;
54372;SDS011;40271;48.798;10.178;2022-07-23T03:41:53;4.93;;;3.90;;
54372;SDS011;40271;48.798;10.178;2022-07-23T03:44:19;5.90;;;4.00;;
54372;SDS011;40271;48.798;10.178;2022-07-23T03:46:45;5.22;;;4.05;;
54372;SDS011;40271;48.798;10.178;2022-07-23T03:49:11;5.38;;;4.28;;
54372;SDS011;40271;48.798;10.178;2022-07-23T03:51:37;4.57;;;3.95;;
54372;SDS011;40271;48.798;10.178;2022-07-23T03:54:03;7.38;;;4.28;;
54372;SDS011;40271;48.798;10.178;2022-07-23T03:56:29;7.60;;;4.28;;
54372;SDS011;40271;48.798;10.178;2022-07-23T03:58:55;6.50;;;4.60;;
54372;SDS011;40271;48.798;10.178;2022-07-23T04:01:22;5.10;;;4.32;;
54372;SDS011;40271;48.798;10.178;2022-07-23T04:03:48;5.60;;;4.35;;
54372;SDS011;40271;48.798;10.178;2022-07-23T04:06:14;5.25;;;4.30;;
54372;SDS011;40271;48.798;10.178;2022-07-23T04:08:40;5.68;;;4.43;;
54372;SDS011;40271;48.798;10.178;2022-07-23T04:11:06;7.53;;;4.45;;
54372;SDS011;40271;48.798;10.178;2022-07-23T04:13:32;6.40;;;4.30;;
54372;SDS011;40271;48.798;10.178;2022-07-23T04:15:58;6.85;;;4.30;;
54372;SDS011;40271;48.798;10.178;2022-07-23T04:18:24;5.15;;;4.50;;
54372;SDS011;40271;48.798;10.178;2022-07-23T04:20:50;4.55;;;3.97;;
54372;SDS011;40271;48.798;10.178;2022-07-23T04:23:17;5.05;;;3.83;;
54372;SDS011;40271;48.798;10.178;2022-07-23T04:25:43;5.32;;;4.50;;
54372;SDS011;40271;48.798;10.178;2022-07-23T04:28:09;6.03;;;4.13;;
54372;SDS011;40271;48.798;10.178;2022-07-23T04:30:35;6.70;;;4.75;;
54372;SDS011;40271;48.798;10.178;2022-07-23T04:33:01;5.72;;;4.47;;
54372;SDS011;40271;48.798;10.178;2022-07-23T04:35:30;4.93;;;4.07;;
54372;SDS011;40271;48.798;10.178;2022-07-23T04:37:56;6.88;;;4.82;;
54372;SDS011;40271;48.798;10.178;2022-07-23T04:40:22;6.95;;;4.53;;
54372;SDS011;40271;48.798;10.178;2022-07-23T04:42:48;5.00;;;4.07;;
54372;SDS011;40271;48.798;10.178;2022-07-23T04:45:14;5.07;;;4.13;;
54372;SDS011;40271;48.798;10.178;2022-07-23T04:47:40;6.50;;;4.13;;
54372;SDS011;40271;48.798;10.178;2022-07-23T04:50:07;6.35;;;4.10;;
54372;SDS011;40271;48.798;10.178;2022-07-23T04:52:33;5.63;;;4.25;;
54372;SDS011;40271;48.798;10.178;2022-07-23T04:54:59;5.50;;;4.10;;
54372;SDS011;40271;48.798;10.178;2022-07-23T04:57:25;5.15;;;3.83;;
54372;SDS011;40271;48.798;10.178;2022-07-23T04:59:51;5.93;;;4.28;;
54372;SDS011;40271;48.798;10.178;2022-07-23T05:02:17;5.03;;;4.10;;
54372;SDS011;40271;48.798;10.178;2022-07-23T05:04:43;5.18;;;3.92;;
54372;SDS011;40271;48.798;10.178;2022-07-23T05:07:09;6.25;;;4.30;;
54372;SDS011;40271;48.798;10.178;2022-07-23T05:09:35;6.20;;;4.28;;
54372;SDS011;40271;48.798;10.178;2022-07-23T05:12:01;5.32;;;4.20;;
54372;SDS011;40271;48.798;10.178;2022-07-23T05:14:27;6.10;;;4.20;;
54372;SDS011;40271;48.798;10.178;2022-07-23T05:16:53;5.57;;;4.10;;
54372;SDS011;40271;48.798;10.178;2022-07-23T05:19:20;4.65;;;3.75;;
54372;SDS011;40271;48.798;10.178;2022-07-23T05:21:46;4.82;;;3.80;;
54372;SDS011;40271;48.798;10.178;2022-07-23T05:24:12;5.97;;;3.92;;
54372;SDS011;40271;48.798;10.178;2022-07-23T05:26:38;5.45;;;3.85;;
54372;SDS011;40271;48.798;10.178;2022-07-23T05:29:04;5.25;;;4.00;;
54372;SDS011;40271;48.798;10.178;2022-07-23T05:31:30;5.75;;;4.43;;
54372;SDS011;40271;48.798;10.178;2022-07-23T05:33:56;6.25;;;4.38;;
54372;SDS011;40271;48.798;10.178;2022-07-23T05:36:22;4.75;;;3.92;;
54372;SDS011;40271;48.798;10.178;2022-07-23T05:38:48;6.38;;;4.10;;
54372;SDS011;40271;48.798;10.178;2022-07-23T05:41:14;5.15;;;4.22;;
54372;SDS011;40271;48.798;10.178;2022-07-23T05:43:40;6.78;;;4.28;;
54372;SDS011;40271;48.798;10.178;2022-07-23T05:46:06;5.38;;;4.07;;
54372;SDS011;40271;48.798;10.178;2022-07-23T05:48:32;5.82;;;4.20;;
54372;SDS011;40271;48.798;10.178;2022-07-23T05:50:58;6.00;;;4.22;;
54372;SDS011;40271;48.798;10.178;2022-07-23T05:53:25;4.25;;;3.85;;
54372;SDS011;40271;48.798;10.178;2022-07-23T05:55:51;5.22;;;4.30;;
54372;SDS011;40271;48.798;10.178;2022-07-23T05:58:17;5.35;;;3.90;;
54372;SDS011;40271;48.798;10.178;2022-07-23T06:00:43;6.18;;;4.57;;
54372;SDS011;40271;48.798;10.178;2022-07-23T06:03:09;5.55;;;4.10;;
54372;SDS011;40271;48.798;10.178;2022-07-23T06:05:35;4.72;;;4.18;;
54372;SDS011;40271;48.798;10.178;2022-07-23T06:08:01;4.97;;;4.10;;
54372;SDS011;40271;48.798;10.178;2022-07-23T06:10:27;5.35;;;3.88;;
54372;SDS011;40271;48.798;10.178;2022-07-23T06:12:53;5.82;;;4.10;;
54372;SDS011;40271;48.798;10.178;2022-07-23T06:15:19;7.00;;;4.25;;
54372;SDS011;40271;48.798;10.178;2022-07-23T06:17:46;6.07;;;3.95;;
54372;SDS011;40271;48.798;10.178;2022-07-23T06:20:12;6.07;;;4.45;;
54372;SDS011;40271;48.798;10.178;2022-07-23T06:22:38;4.57;;;3.90;;
54372;SDS011;40271;48.798;10.178;2022-07-23T06:25:04;6.10;;;4.25;;
54372;SDS011;40271;48.798;10.178;2022-07-23T06:27:30;6.22;;;4.32;;
54372;SDS011;40271;48.798;10.178;2022-07-23T06:29:56;5.13;;;4.13;;
54372;SDS011;40271;48.798;10.178;2022-07-23T06:32:22;4.72;;;4.07;;
54372;SDS011;40271;48.798;10.178;2022-07-23T06:34:48;4.20;;;3.80;;
54372;SDS011;40271;48.798;10.178;2022-07-23T06:37:14;4.40;;;3.83;;
54372;SDS011;40271;48.798;10.178;2022-07-23T06:39:41;4.95;;;3.67;;
54372;SDS011;40271;48.798;10.178;2022-07-23T06:42:07;6.20;;;4.00;;
54372;SDS011;40271;48.798;10.178;2022-07-23T06:44:33;5.85;;;3.88;;
54372;SDS011;40271;48.798;10.178;2022-07-23T06:46:59;6.15;;;4.00;;
54372;SDS011;40271;48.798;10.178;2022-07-23T06:49:25;4.45;;;3.72;;
54372;SDS011;40271;48.798;10.178;2022-07-23T06:51:51;4.43;;;3.90;;
54372;SDS011;40271;48.798;10.178;2022-07-23T06:54:17;4.82;;;3.67;;
54372;SDS011;40271;48.798;10.178;2022-07-23T06:56:43;4.93;;;4.20;;
54372;SDS011;40271;48.798;10.178;2022-07-23T06:59:09;4.43;;;3.50;;
54372;SDS011;40271;48.798;10.178;2022-07-23T07:01:35;4.30;;;3.90;;
54372;SDS011;40271;48.798;10.178;2022-07-23T07:04:01;4.10;;;3.70;;
54372;SDS011;40271;48.798;10.178;2022-07-23T07:06:27;4.57;;;3.70;;
54372;SDS011;40271;48.798;10.178;2022-07-23T07:08:53;4.75;;;4.10;;
54372;SDS011;40271;48.798;10.178;2022-07-23T07:11:20;3.97;;;3.55;;
54372;SDS011;40271;48.798;10.178;2022-07-23T07:13:46;4.88;;;4.00;;
54372;SDS011;40271;48.798;10.178;2022-07-23T07:16:12;4.75;;;3.55;;
54372;SDS011;40271;48.798;10.178;2022-07-23T07:18:38;4.70;;;4.00;;
54372;SDS011;40271;48.798;10.178;2022-07-23T07:21:04;5.18;;;4.00;;
54372;SDS011;40271;48.798;10.178;2022-07-23T07:23:30;5.35;;;4.57;;
54372;SDS011;40271;48.798;10.178;2022-07-23T07:25:56;5.10;;;3.80;;
54372;SDS011;40271;48.798;10.178;2022-07-23T07:28:22;4.57;;;4.10;;
54372;SDS011;40271;48.798;10.178;2022-07-23T07:30:49;5.05;;;4.07;;
54372;SDS011;40271;48.798;10.178;2022-07-23T07:33:15;4.13;;;3.72;;
54372;SDS011;40271;48.798;10.178;2022-07-23T07:35:41;4.30;;;3.90;;
54372;SDS011;40271;48.798;10.178;2022-07-23T07:38:07;4.50;;;4.10;;
54372;SDS011;40271;48.798;10.178;2022-07-23T07:40:33;5.18;;;3.78;;
54372;SDS011;40271;48.798;10.178;2022-07-23T07:42:59;5.05;;;4.15;;
54372;SDS011;40271;48.798;10.178;2022-07-23T07:45:26;4.80;;;3.40;;
54372;SDS011;40271;48.798;10.178;2022-07-23T07:47:52;4.43;;;3.53;;
54372;SDS011;40271;48.798;10.178;2022-07-23T07:50:19;4.20;;;3.67;;
54372;SDS011;40271;48.798;10.178;2022-07-23T07:52:45;4.53;;;3.60;;
54372;SDS011;40271;48.798;10.178;2022-07-23T07:55:11;4.40;;;3.72;;
54372;SDS011;40271;48.798;10.178;2022-07-23T07:57:38;4.13;;;3.72;;
54372;SDS011;40271;48.798;10.178;2022-07-23T08:00:05;5.28;;;4.22;;
54372;SDS011;40271;48.798;10.178;2022-07-23T08:02:53;4.55;;;4.05;;
54372;SDS011;40271;48.798;10.178;2022-07-23T08:05:18;6.07;;;4.15;;
54372;SDS011;40271;48.798;10.178;2022-07-23T08:07:45;6.20;;;4.47;;
54372;SDS011;40271;48.798;10.178;2022-07-23T08:10:11;4.97;;;4.40;;
54372;SDS011;40271;48.798;10.178;2022-07-23T08:12:44;5.90;;;4.30;;
54372;SDS011;40271;48.798;10.178;2022-07-23T08:15:11;5.22;;;4.40;;
54372;SDS011;40271;48.798;10.178;2022-07-23T08:17:37;5.90;;;3.95;;
54372;SDS011;40271;48.798;10.178;2022-07-23T08:20:04;6.95;;;4.47;;
54372;SDS011;40271;48.798;10.178;2022-07-23T08:25:09;5.60;;;4.65;;
54372;SDS011;40271;48.798;10.178;2022-07-23T08:27:35;4.78;;;4.18;;
54372;SDS011;40271;48.798;10.178;2022-07-23T08:30:01;5.78;;;4.25;;
54372;SDS011;40271;48.798;10.178;2022-07-23T08:32:27;5.80;;;4.25;;
54372;SDS011;40271;48.798;10.178;2022-07-23T08:34:53;6.65;;;4.20;;
54372;SDS011;40271;48.798;10.178;2022-07-23T08:37:19;5.20;;;4.30;;
54372;SDS011;40271;48.798;10.178;2022-07-23T08:39:45;5.85;;;4.55;;
54372;SDS011;40271;48.798;10.178;2022-07-23T08:42:12;6.88;;;4.72;;
54372;SDS011;40271;48.798;10.178;2022-07-23T08:44:40;5.07;;;4.53;;
54372;SDS011;40271;48.798;10.178;2022-07-23T08:47:07;6.82;;;4.72;;
54372;SDS011;40271;48.798;10.178;2022-07-23T08:49:34;6.28;;;4.28;;
54372;SDS011;40271;48.798;10.178;2022-07-23T08:52:01;5.65;;;4.35;;
54372;SDS011;40271;48.798;10.178;2022-07-23T08:54:27;5.68;;;4.80;;
54372;SDS011;40271;48.798;10.178;2022-07-23T08:56:53;5.43;;;4.50;;
54372;SDS011;40271;48.798;10.178;2022-07-23T08:59:19;6.38;;;4.68;;
54372;SDS011;40271;48.798;10.178;2022-07-23T09:01:45;6.05;;;4.88;;
54372;SDS011;40271;48.798;10.178;2022-07-23T09:04:11;6.93;;;5.13;;
54372;SDS011;40271;48.798;10.178;2022-07-23T09:06:38;5.93;;;4.93;;
54372;SDS011;40271;48.798;10.178;2022-07-23T09:09:17;4.90;;;4.30;;
54372;SDS011;40271;48.798;10.178;2022-07-23T09:11:47;8.10;;;4.95;;
54372;SDS011;40271;48.798;10.178;2022-07-23T09:14:13;5.38;;;4.57;;
54372;SDS011;40271;48.798;10.178;2022-07-23T09:16:39;5.47;;;4.63;;
54372;SDS011;40271;48.798;10.178;2022-07-23T09:19:06;6.20;;;5.05;;
54372;SDS011;40271;48.798;10.178;2022-07-23T09:21:36;5.55;;;4.97;;
54372;SDS011;40271;48.798;10.178;2022-07-23T09:26:36;6.93;;;5.13;;
54372;SDS011;40271;48.798;10.178;2022-07-23T09:31:50;6.55;;;5.30;;
54372;SDS011;40271;48.798;10.178;2022-07-23T09:36:43;5.32;;;4.32;;
54372;SDS011;40271;48.798;10.178;2022-07-23T09:39:09;5.07;;;4.53;;
54372;SDS011;40271;48.798;10.178;2022-07-23T09:41:36;6.82;;;4.90;;
54372;SDS011;40271;48.798;10.178;2022-07-23T09:44:36;5.88;;;4.70;;
54372;SDS011;40271;48.798;10.178;2022-07-23T09:46:58;5.88;;;4.60;;
54372;SDS011;40271;48.798;10.178;2022-07-23T09:49:26;5.10;;;4.57;;
54372;SDS011;40271;48.798;10.178;2022-07-23T09:51:54;5.50;;;4.88;;
54372;SDS011;40271;48.798;10.178;2022-07-23T09:54:26;6.18;;;5.10;;
54372;SDS011;40271;48.798;10.178;2022-07-23T09:56:54;6.03;;;5.05;;
54372;SDS011;40271;48.798;10.178;2022-07-23T09:59:26;6.18;;;5.00;;
54372;SDS011;40271;48.798;10.178;2022-07-23T10:01:56;6.10;;;4.90;;
54372;SDS011;40271;48.798;10.178;2022-07-23T10:04:24;5.75;;;5.10;;
54372;SDS011;40271;48.798;10.178;2022-07-23T10:06:54;8.55;;;5.05;;
54372;SDS011;40271;48.798;10.178;2022-07-23T10:09:24;5.90;;;4.80;;
54372;SDS011;40271;48.798;10.178;2022-07-23T10:11:51;5.80;;;4.72;;
54372;SDS011;40271;48.798;10.178;2022-07-23T10:14:18;5.97;;;4.75;;
54372;SDS011;40271;48.798;10.178;2022-07-23T10:16:44;5.18;;;4.68;;
54372;SDS011;40271;48.798;10.178;2022-07-23T10:19:10;6.38;;;5.03;;
54372;SDS011;40271;48.798;10.178;2022-07-23T10:21:39;5.75;;;5.07;;
54372;SDS011;40271;48.798;10.178;2022-07-23T10:32:26;6.07;;;4.88;;
54372;SDS011;40271;48.798;10.178;2022-07-23T10:37:35;6.28;;;5.03;;
54372;SDS011;40271;48.798;10.178;2022-07-23T10:40:08;6.07;;;5.00;;
54372;SDS011;40271;48.798;10.178;2022-07-23T10:42:34;7.18;;;5.07;;
54372;SDS011;40271;48.798;10.178;2022-07-23T10:45:01;6.40;;;4.80;;
54372;SDS011;40271;48.798;10.178;2022-07-23T10:47:27;5.15;;;4.65;;
54372;SDS011;40271;48.798;10.178;2022-07-23T10:52:51;5.43;;;4.80;;
54372;SDS011;40271;48.798;10.178;2022-07-23T10:57:55;6.82;;;5.20;;
54372;SDS011;40271;48.798;10.178;2022-07-23T11:02:48;5.30;;;4.50;;
54372;SDS011;40271;48.798;10.178;2022-07-23T11:05:15;6.18;;;4.50;;
54372;SDS011;40271;48.798;10.178;2022-07-23T11:08:26;7.72;;;4.97;;
54372;SDS011;40271;48.798;10.178;2022-07-23T11:10:34;6.63;;;4.65;;
54372;SDS011;40271;48.798;10.178;2022-07-23T11:31:58;6.38;;;4.80;;
54372;SDS011;40271;48.798;10.178;2022-07-23T11:37:00;4.95;;;4.43;;
54372;SDS011;40271;48.798;10.178;2022-07-23T11:39:27;6.13;;;4.65;;
54372;SDS011;40271;48.798;10.178;2022-07-23T11:41:54;6.63;;;4.78;;
54372;SDS011;40271;48.798;10.178;2022-07-23T11:47:02;5.25;;;4.60;;
54372;SDS011;40271;48.798;10.178;2022-07-23T11:49:29;5.47;;;4.30;;
54372;SDS011;40271;48.798;10.178;2022-07-23T11:52:05;5.45;;;4.53;;
54372;SDS011;40271;48.798;10.178;2022-07-23T11:54:32;5.75;;;4.60;;
54372;SDS011;40271;48.798;10.178;2022-07-23T11:56:59;4.97;;;4.47;;
54372;SDS011;40271;48.798;10.178;2022-07-23T11:59:29;5.38;;;4.50;;
54372;SDS011;40271;48.798;10.178;2022-07-23T12:01:57;5.20;;;4.60;;
54372;SDS011;40271;48.798;10.178;2022-07-23T12:04:24;6.10;;;4.90;;
54372;SDS011;40271;48.798;10.178;2022-07-23T12:06:50;5.50;;;4.60;;
54372;SDS011;40271;48.798;10.178;2022-07-23T12:09:16;6.45;;;5.00;;
54372;SDS011;40271;48.798;10.178;2022-07-23T12:11:58;5.82;;;4.70;;
54372;SDS011;40271;48.798;10.178;2022-07-23T12:14:24;6.28;;;4.68;;
54372;SDS011;40271;48.798;10.178;2022-07-23T12:17:09;5.53;;;4.53;;
54372;SDS011;40271;48.798;10.178;2022-07-23T12:19:35;6.20;;;4.95;;
54372;SDS011;40271;48.798;10.178;2022-07-23T12:22:01;5.10;;;4.60;;
54372;SDS011;40271;48.798;10.178;2022-07-23T12:24:27;5.25;;;4.60;;
54372;SDS011;40271;48.798;10.178;2022-07-23T12:27:12;5.75;;;4.90;;
54372;SDS011;40271;48.798;10.178;2022-07-23T12:29:38;5.53;;;4.55;;
54372;SDS011;40271;48.798;10.178;2022-07-23T12:32:42;4.93;;;4.43;;
54372;SDS011;40271;48.798;10.178;2022-07-23T12:37:29;4.95;;;4.20;;
54372;SDS011;40271;48.798;10.178;2022-07-23T12:39:56;5.03;;;4.53;;
54372;SDS011;40271;48.798;10.178;2022-07-23T12:42:22;5.65;;;4.57;;
54372;SDS011;40271;48.798;10.178;2022-07-23T12:47:30;6.10;;;4.60;;
54372;SDS011;40271;48.798;10.178;2022-07-23T12:49:56;4.78;;;4.28;;
54372;SDS011;40271;48.798;10.178;2022-07-23T12:52:22;5.00;;;4.32;;
54372;SDS011;40271;48.798;10.178;2022-07-23T12:54:48;6.00;;;4.50;;
54372;SDS011;40271;48.798;10.178;2022-07-23T12:57:14;4.78;;;4.28;;
54372;SDS011;40271;48.798;10.178;2022-07-23T12:59:40;4.85;;;4.40;;
54372;SDS011;40271;48.798;10.178;2022-07-23T13:02:07;5.22;;;4.20;;
54372;SDS011;40271;48.798;10.178;2022-07-23T13:04:34;4.90;;;4.40;;
54372;SDS011;40271;48.798;10.178;2022-07-23T13:07:00;5.32;;;4.50;;
54372;SDS011;40271;48.798;10.178;2022-07-23T13:09:30;4.85;;;4.28;;
54372;SDS011;40271;48.798;10.178;2022-07-23T13:11:56;5.60;;;4.50;;
54372;SDS011;40271;48.798;10.178;2022-07-23T13:14:24;5.78;;;4.47;;
54372;SDS011;40271;48.798;10.178;2022-07-23T13:16:50;5.85;;;4.43;;
54372;SDS011;40271;48.798;10.178;2022-07-23T13:19:16;5.00;;;4.50;;
54372;SDS011;40271;48.798;10.178;2022-07-23T13:21:43;5.50;;;4.45;;
54372;SDS011;40271;48.798;10.178;2022-07-23T13:24:09;5.20;;;4.38;;
54372;SDS011;40271;48.798;10.178;2022-07-23T13:26:36;5.20;;;4.50;;
54372;SDS011;40271;48.798;10.178;2022-07-23T13:29:02;7.00;;;4.38;;
54372;SDS011;40271;48.798;10.178;2022-07-23T13:31:28;4.78;;;4.20;;
54372;SDS011;40271;48.798;10.178;2022-07-23T13:33:54;4.15;;;3.75;;
54372;SDS011;40271;48.798;10.178;2022-07-23T13:36:20;5.00;;;4.13;;
54372;SDS011;40271;48.798;10.178;2022-07-23T13:38:46;5.18;;;4.20;;
54372;SDS011;40271;48.798;10.178;2022-07-23T13:41:12;4.25;;;3.85;;
54372;SDS011;40271;48.798;10.178;2022-07-23T13:43:41;4.40;;;3.75;;
54372;SDS011;40271;48.798;10.178;2022-07-23T13:46:07;4.32;;;3.92;;
54372;SDS011;40271;48.798;10.178;2022-07-23T13:48:33;4.95;;;3.65;;
54372;SDS011;40271;48.798;10.178;2022-07-23T13:50:59;5.65;;;3.78;;
54372;SDS011;40271;48.798;10.178;2022-07-23T13:53:25;5.57;;;4.18;;
54372;SDS011;40271;48.798;10.178;2022-07-23T13:55:52;4.60;;;3.78;;
54372;SDS011;40271;48.798;10.178;2022-07-23T13:58:19;4.10;;;3.70;;
54372;SDS011;40271;48.798;10.178;2022-07-23T14:00:47;4.03;;;3.63;;
54372;SDS011;40271;48.798;10.178;2022-07-23T14:03:13;4.35;;;3.55;;
54372;SDS011;40271;48.798;10.178;2022-07-23T14:05:39;5.68;;;4.22;;
54372;SDS011;40271;48.798;10.178;2022-07-23T14:08:06;4.57;;;3.75;;
54372;SDS011;40271;48.798;10.178;2022-07-23T14:10:32;4.72;;;3.88;;
54372;SDS011;40271;48.798;10.178;2022-07-23T14:12:59;5.75;;;3.65;;
54372;SDS011;40271;48.798;10.178;2022-07-23T14:15:26;4.18;;;3.78;;
54372;SDS011;40271;48.798;10.178;2022-07-23T14:17:52;4.88;;;3.63;;
54372;SDS011;40271;48.798;10.178;2022-07-23T14:20:19;4.72;;;3.53;;
54372;SDS011;40271;48.798;10.178;2022-07-23T14:22:45;5.03;;;3.80;;
54372;SDS011;40271;48.798;10.178;2022-07-23T14:25:11;4.60;;;3.85;;
54372;SDS011;40271;48.798;10.178;2022-07-23T14:27:37;4.28;;;3.70;;
54372;SDS011;40271;48.798;10.178;2022-07-23T14:30:05;4.25;;;3.72;;
54372;SDS011;40271;48.798;10.178;2022-07-23T14:32:32;5.03;;;4.18;;
54372;SDS011;40271;48.798;10.178;2022-07-23T14:34:58;4.50;;;4.03;;
54372;SDS011;40271;48.798;10.178;2022-07-23T14:37:24;5.03;;;3.80;;
54372;SDS011;40271;48.798;10.178;2022-07-23T14:39:50;4.93;;;3.35;;
54372;SDS011;40271;48.798;10.178;2022-07-23T14:42:16;5.30;;;3.70;;
54372;SDS011;40271;48.798;10.178;2022-07-23T14:44:42;4.88;;;4.07;;
54372;SDS011;40271;48.798;10.178;2022-07-23T14:47:09;4.25;;;3.63;;
54372;SDS011;40271;48.798;10.178;2022-07-23T14:49:35;4.47;;;3.83;;
54372;SDS011;40271;48.798;10.178;2022-07-23T14:52:01;6.05;;;3.95;;
54372;SDS011;40271;48.798;10.178;2022-07-23T14:54:28;5.35;;;3.88;;
54372;SDS011;40271;48.798;10.178;2022-07-23T14:56:54;5.00;;;3.75;;
54372;SDS011;40271;48.798;10.178;2022-07-23T14:59:21;5.82;;;4.07;;
54372;SDS011;40271;48.798;10.178;2022-07-23T15:01:47;6.93;;;4.03;;
54372;SDS011;40271;48.798;10.178;2022-07-23T15:04:13;4.40;;;3.67;;
54372;SDS011;40271;48.798;10.178;2022-07-23T15:06:40;3.97;;;3.58;;
54372;SDS011;40271;48.798;10.178;2022-07-23T15:09:06;4.97;;;3.90;;
54372;SDS011;40271;48.798;10.178;2022-07-23T15:11:32;4.68;;;4.22;;
54372;SDS011;40271;48.798;10.178;2022-07-23T15:14:00;5.38;;;3.72;;
54372;SDS011;40271;48.798;10.178;2022-07-23T15:16:26;5.72;;;4.55;;
54372;SDS011;40271;48.798;10.178;2022-07-23T15:18:52;5.82;;;4.18;;
54372;SDS011;40271;48.798;10.178;2022-07-23T15:21:19;5.22;;;4.03;;
54372;SDS011;40271;48.798;10.178;2022-07-23T15:23:45;5.38;;;4.03;;
54372;SDS011;40271;48.798;10.178;2022-07-23T15:26:11;6.43;;;4.10;;
54372;SDS011;40271;48.798;10.178;2022-07-23T15:28:39;4.88;;;4.38;;
54372;SDS011;40271;48.798;10.178;2022-07-23T15:31:05;5.07;;;4.05;;